sensor_id;sensor_type;location;lat;lon;timestamp;temperature;humidity
20706;DHT22;10514;49.468;11.044;2024-03-02T00:02:24;7.10;99.90
20706;DHT22;10514;49.468;11.044;2024-03-02T00:04:50;7.10;99.90
20706;DHT22;10514;49.468;11.044;2024-03-02T00:07:16;7.10;99.90
20706;DHT22;10514;49.468;11.044;2024-03-02T00:09:42;7.10;99.90
20706;DHT22;10514;49.468;11.044;2024-03-02T00:12:08;7.00;99.90
20706;DHT22;10514;49.468;11.044;2024-03-02T00:14:36;7.10;99.90
20706;DHT22;10514;49.468;11.044;2024-03-02T00:17:02;7.00;99.90
20706;DHT22;10514;49.468;11.044;2024-03-02T00:19:28;7.00;99.90
20706;DHT22;10514;49.468;11.044;2024-03-02T00:21:54;7.00;99.90
20706;DHT22;10514;49.468;11.044;2024-03-02T00:24:34;7.10;99.90
20706;DHT22;10514;49.468;11.044;2024-03-02T00:27:00;7.10;99.90
20706;DHT22;10514;49.468;11.044;2024-03-02T00:29:25;7.10;99.90
20706;DHT22;10514;49.468;11.044;2024-03-02T00:31:52;7.10;99.90
20706;DHT22;10514;49.468;11.044;2024-03-02T00:34:18;7.10;99.90
20706;DHT22;10514;49.468;11.044;2024-03-02T00:36:45;7.00;99.90
20706;DHT22;10514;49.468;11.044;2024-03-02T00:39:12;7.00;99.90
20706;DHT22;10514;49.468;11.044;2024-03-02T00:41:41;7.00;99.90
20706;DHT22;10514;49.468;11.044;2024-03-02T00:44:12;7.10;99.90
20706;DHT22;10514;49.468;11.044;2024-03-02T00:46:42;7.10;99.90
20706;DHT22;10514;49.468;11.044;2024-03-02T00:49:23;7.10;99.90
20706;DHT22;10514;49.468;11.044;2024-03-02T00:51:51;7.10;99.90
20706;DHT22;10514;49.468;11.044;2024-03-02T00:54:27;7.10;99.90
20706;DHT22;10514;49.468;11.044;2024-03-02T00:56:54;7.10;99.90
20706;DHT22;10514;49.468;11.044;2024-03-02T00:59:21;7.00;99.90
20706;DHT22;10514;49.468;11.044;2024-03-02T01:01:48;7.00;99.90
20706;DHT22;10514;49.468;11.044;2024-03-02T01:04:14;7.00;99.90
20706;DHT22;10514;49.468;11.044;2024-03-02T01:06:40;7.00;99.90
20706;DHT22;10514;49.468;11.044;2024-03-02T01:09:06;7.00;99.90
20706;DHT22;10514;49.468;11.044;2024-03-02T01:11:31;7.00;99.90
20706;DHT22;10514;49.468;11.044;2024-03-02T01:13:57;7.00;99.90
20706;DHT22;10514;49.468;11.044;2024-03-02T01:16:22;7.00;99.90
20706;DHT22;10514;49.468;11.044;2024-03-02T01:18:48;7.00;99.90
20706;DHT22;10514;49.468;11.044;2024-03-02T01:21:15;7.00;99.90
20706;DHT22;10514;49.468;11.044;2024-03-02T01:23:40;6.90;99.90
20706;DHT22;10514;49.468;11.044;2024-03-02T01:26:06;6.90;99.90
20706;DHT22;10514;49.468;11.044;2024-03-02T01:28:32;6.90;99.90
20706;DHT22;10514;49.468;11.044;2024-03-02T01:30:58;6.90;99.90
20706;DHT22;10514;49.468;11.044;2024-03-02T01:33:23;6.90;99.90
20706;DHT22;10514;49.468;11.044;2024-03-02T01:35:49;6.90;99.90
20706;DHT22;10514;49.468;11.044;2024-03-02T01:38:14;6.90;99.90
20706;DHT22;10514;49.468;11.044;2024-03-02T01:40:40;6.80;99.90
20706;DHT22;10514;49.468;11.044;2024-03-02T01:43:07;6.80;99.90
20706;DHT22;10514;49.468;11.044;2024-03-02T01:45:34;6.80;99.90
20706;DHT22;10514;49.468;11.044;2024-03-02T01:48:01;6.70;99.90
20706;DHT22;10514;49.468;11.044;2024-03-02T01:50:28;6.80;99.90
20706;DHT22;10514;49.468;11.044;2024-03-02T01:52:55;6.80;99.90
20706;DHT22;10514;49.468;11.044;2024-03-02T01:55:21;6.80;99.90
20706;DHT22;10514;49.468;11.044;2024-03-02T01:57:47;6.70;99.90
20706;DHT22;10514;49.468;11.044;2024-03-02T02:00:13;6.70;99.90
20706;DHT22;10514;49.468;11.044;2024-03-02T02:02:39;6.70;99.90
20706;DHT22;10514;49.468;11.044;2024-03-02T02:05:05;6.70;99.90
20706;DHT22;10514;49.468;11.044;2024-03-02T02:07:31;6.70;99.90
20706;DHT22;10514;49.468;11.044;2024-03-02T02:09:57;6.60;99.90
20706;DHT22;10514;49.468;11.044;2024-03-02T02:12:22;6.70;99.90
20706;DHT22;10514;49.468;11.044;2024-03-02T02:14:48;6.70;99.90
20706;DHT22;10514;49.468;11.044;2024-03-02T02:17:15;6.60;99.90
20706;DHT22;10514;49.468;11.044;2024-03-02T02:19:41;6.60;99.90
20706;DHT22;10514;49.468;11.044;2024-03-02T02:22:08;6.70;99.90
20706;DHT22;10514;49.468;11.044;2024-03-02T02:24:33;6.60;99.90
20706;DHT22;10514;49.468;11.044;2024-03-02T02:26:59;6.60;99.90
20706;DHT22;10514;49.468;11.044;2024-03-02T02:29:24;6.60;99.90
20706;DHT22;10514;49.468;11.044;2024-03-02T02:31:50;6.60;99.90
20706;DHT22;10514;49.468;11.044;2024-03-02T02:34:16;6.60;99.90
20706;DHT22;10514;49.468;11.044;2024-03-02T02:36:42;6.60;99.90
20706;DHT22;10514;49.468;11.044;2024-03-02T02:39:11;6.60;99.90
20706;DHT22;10514;49.468;11.044;2024-03-02T02:41:38;6.60;99.90
20706;DHT22;10514;49.468;11.044;2024-03-02T02:44:04;6.60;99.90
20706;DHT22;10514;49.468;11.044;2024-03-02T02:46:29;6.60;99.90
20706;DHT22;10514;49.468;11.044;2024-03-02T02:48:55;6.60;99.90
20706;DHT22;10514;49.468;11.044;2024-03-02T02:51:20;6.60;99.90
20706;DHT22;10514;49.468;11.044;2024-03-02T02:53:46;6.60;99.90
20706;DHT22;10514;49.468;11.044;2024-03-02T02:56:11;6.70;99.90
20706;DHT22;10514;49.468;11.044;2024-03-02T02:58:37;6.70;99.90
20706;DHT22;10514;49.468;11.044;2024-03-02T03:01:03;6.70;99.90
20706;DHT22;10514;49.468;11.044;2024-03-02T03:03:29;6.70;99.90
20706;DHT22;10514;49.468;11.044;2024-03-02T03:05:54;6.70;99.90
20706;DHT22;10514;49.468;11.044;2024-03-02T03:08:20;6.70;99.90
20706;DHT22;10514;49.468;11.044;2024-03-02T03:10:45;6.70;99.90
20706;DHT22;10514;49.468;11.044;2024-03-02T03:13:11;6.70;99.90
20706;DHT22;10514;49.468;11.044;2024-03-02T03:15:37;6.70;99.90
20706;DHT22;10514;49.468;11.044;2024-03-02T03:18:03;6.70;99.90
20706;DHT22;10514;49.468;11.044;2024-03-02T03:20:29;6.70;99.90
20706;DHT22;10514;49.468;11.044;2024-03-02T03:22:56;6.70;99.90
20706;DHT22;10514;49.468;11.044;2024-03-02T03:25:21;6.80;99.90
20706;DHT22;10514;49.468;11.044;2024-03-02T03:27:47;6.70;99.90
20706;DHT22;10514;49.468;11.044;2024-03-02T03:30:12;6.80;99.90
20706;DHT22;10514;49.468;11.044;2024-03-02T03:32:38;6.70;99.90
20706;DHT22;10514;49.468;11.044;2024-03-02T03:35:04;6.80;99.90
20706;DHT22;10514;49.468;11.044;2024-03-02T03:37:30;6.80;99.90
20706;DHT22;10514;49.468;11.044;2024-03-02T03:39:59;6.70;99.90
20706;DHT22;10514;49.468;11.044;2024-03-02T03:42:24;6.80;99.90
20706;DHT22;10514;49.468;11.044;2024-03-02T03:44:50;6.80;99.90
20706;DHT22;10514;49.468;11.044;2024-03-02T03:47:15;6.80;99.90
20706;DHT22;10514;49.468;11.044;2024-03-02T03:49:41;6.90;99.90
20706;DHT22;10514;49.468;11.044;2024-03-02T03:52:06;6.80;99.90
20706;DHT22;10514;49.468;11.044;2024-03-02T03:54:32;6.80;99.90
20706;DHT22;10514;49.468;11.044;2024-03-02T03:56:57;6.80;99.90
20706;DHT22;10514;49.468;11.044;2024-03-02T03:59:23;6.80;99.90
20706;DHT22;10514;49.468;11.044;2024-03-02T04:01:49;6.90;99.90
20706;DHT22;10514;49.468;11.044;2024-03-02T04:04:14;6.80;99.90
20706;DHT22;10514;49.468;11.044;2024-03-02T04:06:40;6.90;99.90
20706;DHT22;10514;49.468;11.044;2024-03-02T04:09:05;6.80;99.90
20706;DHT22;10514;49.468;11.044;2024-03-02T04:11:31;6.70;99.90
20706;DHT22;10514;49.468;11.044;2024-03-02T04:13:56;6.80;99.90
20706;DHT22;10514;49.468;11.044;2024-03-02T04:16:22;6.80;99.90
20706;DHT22;10514;49.468;11.044;2024-03-02T04:18:48;6.80;99.90
20706;DHT22;10514;49.468;11.044;2024-03-02T04:21:13;6.70;99.90
20706;DHT22;10514;49.468;11.044;2024-03-02T04:23:39;6.70;99.90
20706;DHT22;10514;49.468;11.044;2024-03-02T04:26:04;6.70;99.90
20706;DHT22;10514;49.468;11.044;2024-03-02T04:28:30;6.70;99.90
20706;DHT22;10514;49.468;11.044;2024-03-02T04:30:55;6.70;99.90
20706;DHT22;10514;49.468;11.044;2024-03-02T04:33:21;6.70;99.90
20706;DHT22;10514;49.468;11.044;2024-03-02T04:35:46;6.60;99.90
20706;DHT22;10514;49.468;11.044;2024-03-02T04:38:12;6.60;99.90
20706;DHT22;10514;49.468;11.044;2024-03-02T04:40:37;6.60;99.90
20706;DHT22;10514;49.468;11.044;2024-03-02T04:43:03;6.60;99.90
20706;DHT22;10514;49.468;11.044;2024-03-02T04:45:29;6.50;99.90
20706;DHT22;10514;49.468;11.044;2024-03-02T04:47:55;6.50;99.90
20706;DHT22;10514;49.468;11.044;2024-03-02T04:50:20;6.50;99.90
20706;DHT22;10514;49.468;11.044;2024-03-02T04:52:46;6.40;99.90
20706;DHT22;10514;49.468;11.044;2024-03-02T04:55:11;6.40;99.90
20706;DHT22;10514;49.468;11.044;2024-03-02T04:57:56;6.30;99.90
20706;DHT22;10514;49.468;11.044;2024-03-02T05:00:21;6.30;99.90
20706;DHT22;10514;49.468;11.044;2024-03-02T05:02:47;6.30;99.90
20706;DHT22;10514;49.468;11.044;2024-03-02T05:05:13;6.30;99.90
20706;DHT22;10514;49.468;11.044;2024-03-02T05:07:40;6.40;99.90
20706;DHT22;10514;49.468;11.044;2024-03-02T05:10:08;6.30;99.90
20706;DHT22;10514;49.468;11.044;2024-03-02T05:12:33;6.30;99.90
20706;DHT22;10514;49.468;11.044;2024-03-02T05:15:09;6.40;99.90
20706;DHT22;10514;49.468;11.044;2024-03-02T05:17:38;6.40;99.90
20706;DHT22;10514;49.468;11.044;2024-03-02T05:20:06;6.30;99.90
20706;DHT22;10514;49.468;11.044;2024-03-02T05:22:33;6.30;99.90
20706;DHT22;10514;49.468;11.044;2024-03-02T05:24:59;6.30;99.90
20706;DHT22;10514;49.468;11.044;2024-03-02T05:27:26;6.30;99.90
20706;DHT22;10514;49.468;11.044;2024-03-02T05:29:52;6.30;99.90
20706;DHT22;10514;49.468;11.044;2024-03-02T05:32:17;6.30;99.90
20706;DHT22;10514;49.468;11.044;2024-03-02T05:34:43;6.30;99.90
20706;DHT22;10514;49.468;11.044;2024-03-02T05:37:09;6.20;99.90
20706;DHT22;10514;49.468;11.044;2024-03-02T05:39:34;6.20;99.90
20706;DHT22;10514;49.468;11.044;2024-03-02T05:42:00;6.20;99.90
20706;DHT22;10514;49.468;11.044;2024-03-02T05:44:25;6.20;99.90
20706;DHT22;10514;49.468;11.044;2024-03-02T05:46:51;6.30;99.90
20706;DHT22;10514;49.468;11.044;2024-03-02T05:49:16;6.20;99.90
20706;DHT22;10514;49.468;11.044;2024-03-02T05:51:42;6.20;99.90
20706;DHT22;10514;49.468;11.044;2024-03-02T05:54:07;6.10;99.90
20706;DHT22;10514;49.468;11.044;2024-03-02T05:56:33;6.10;99.90
20706;DHT22;10514;49.468;11.044;2024-03-02T05:58:58;6.10;99.90
20706;DHT22;10514;49.468;11.044;2024-03-02T06:01:38;6.10;99.90
20706;DHT22;10514;49.468;11.044;2024-03-02T06:04:04;6.10;99.90
20706;DHT22;10514;49.468;11.044;2024-03-02T06:06:29;6.10;99.90
20706;DHT22;10514;49.468;11.044;2024-03-02T06:08:55;6.10;99.90
20706;DHT22;10514;49.468;11.044;2024-03-02T06:11:20;6.20;99.90
20706;DHT22;10514;49.468;11.044;2024-03-02T06:13:46;6.10;99.90
20706;DHT22;10514;49.468;11.044;2024-03-02T06:16:11;6.10;99.90
20706;DHT22;10514;49.468;11.044;2024-03-02T06:18:37;6.10;99.90
20706;DHT22;10514;49.468;11.044;2024-03-02T06:21:03;6.10;99.90
20706;DHT22;10514;49.468;11.044;2024-03-02T06:23:29;6.10;99.90
20706;DHT22;10514;49.468;11.044;2024-03-02T06:25:54;6.10;99.90
20706;DHT22;10514;49.468;11.044;2024-03-02T06:28:20;6.10;99.90
20706;DHT22;10514;49.468;11.044;2024-03-02T06:30:46;6.10;99.90
20706;DHT22;10514;49.468;11.044;2024-03-02T06:33:11;6.10;99.90
20706;DHT22;10514;49.468;11.044;2024-03-02T06:35:37;6.10;99.90
20706;DHT22;10514;49.468;11.044;2024-03-02T06:38:03;6.10;99.90
20706;DHT22;10514;49.468;11.044;2024-03-02T06:40:28;6.10;99.90
20706;DHT22;10514;49.468;11.044;2024-03-02T06:42:54;6.10;99.90
20706;DHT22;10514;49.468;11.044;2024-03-02T06:45:19;6.10;99.90
20706;DHT22;10514;49.468;11.044;2024-03-02T06:47:45;6.10;99.90
20706;DHT22;10514;49.468;11.044;2024-03-02T06:50:11;6.20;99.90
20706;DHT22;10514;49.468;11.044;2024-03-02T06:52:36;6.20;99.90
20706;DHT22;10514;49.468;11.044;2024-03-02T06:55:02;6.20;99.90
20706;DHT22;10514;49.468;11.044;2024-03-02T06:57:30;6.30;99.90
20706;DHT22;10514;49.468;11.044;2024-03-02T06:59:55;6.30;99.90
20706;DHT22;10514;49.468;11.044;2024-03-02T07:02:26;6.40;99.90
20706;DHT22;10514;49.468;11.044;2024-03-02T07:04:52;6.50;99.90
20706;DHT22;10514;49.468;11.044;2024-03-02T07:07:18;6.50;99.90
20706;DHT22;10514;49.468;11.044;2024-03-02T07:09:44;6.60;99.90
20706;DHT22;10514;49.468;11.044;2024-03-02T07:12:09;6.70;99.90
20706;DHT22;10514;49.468;11.044;2024-03-02T07:14:35;6.80;99.90
20706;DHT22;10514;49.468;11.044;2024-03-02T07:17:22;6.90;99.70
20706;DHT22;10514;49.468;11.044;2024-03-02T07:19:47;7.10;98.80
20706;DHT22;10514;49.468;11.044;2024-03-02T07:22:13;7.20;99.00
20706;DHT22;10514;49.468;11.044;2024-03-02T07:24:40;7.40;98.30
20706;DHT22;10514;49.468;11.044;2024-03-02T07:27:06;7.60;98.00
20706;DHT22;10514;49.468;11.044;2024-03-02T07:29:32;7.80;97.10
20706;DHT22;10514;49.468;11.044;2024-03-02T07:31:57;8.10;95.80
20706;DHT22;10514;49.468;11.044;2024-03-02T07:34:23;8.10;95.70
20706;DHT22;10514;49.468;11.044;2024-03-02T07:36:49;8.30;95.00
20706;DHT22;10514;49.468;11.044;2024-03-02T07:39:14;8.50;94.60
20706;DHT22;10514;49.468;11.044;2024-03-02T07:41:40;8.60;93.20
20706;DHT22;10514;49.468;11.044;2024-03-02T07:44:05;8.80;93.10
20706;DHT22;10514;49.468;11.044;2024-03-02T07:46:31;8.90;92.50
20706;DHT22;10514;49.468;11.044;2024-03-02T07:48:56;8.90;92.10
20706;DHT22;10514;49.468;11.044;2024-03-02T07:51:22;8.90;91.90
20706;DHT22;10514;49.468;11.044;2024-03-02T07:53:47;8.90;91.80
20706;DHT22;10514;49.468;11.044;2024-03-02T07:56:13;9.00;91.90
20706;DHT22;10514;49.468;11.044;2024-03-02T07:58:38;9.00;91.40
20706;DHT22;10514;49.468;11.044;2024-03-02T08:01:04;8.90;91.90
20706;DHT22;10514;49.468;11.044;2024-03-02T08:03:30;8.80;92.00
20706;DHT22;10514;49.468;11.044;2024-03-02T08:05:57;8.90;91.80
20706;DHT22;10514;49.468;11.044;2024-03-02T08:08:23;8.80;91.90
20706;DHT22;10514;49.468;11.044;2024-03-02T08:10:48;8.90;92.20
20706;DHT22;10514;49.468;11.044;2024-03-02T08:13:14;9.00;92.00
20706;DHT22;10514;49.468;11.044;2024-03-02T08:15:40;9.10;91.40
20706;DHT22;10514;49.468;11.044;2024-03-02T08:18:06;9.00;91.10
20706;DHT22;10514;49.468;11.044;2024-03-02T08:20:31;9.10;91.30
20706;DHT22;10514;49.468;11.044;2024-03-02T08:22:57;9.20;90.70
20706;DHT22;10514;49.468;11.044;2024-03-02T08:25:22;9.20;90.30
20706;DHT22;10514;49.468;11.044;2024-03-02T08:27:48;9.20;90.60
20706;DHT22;10514;49.468;11.044;2024-03-02T08:30:14;9.30;90.50
20706;DHT22;10514;49.468;11.044;2024-03-02T08:32:39;9.40;90.20
20706;DHT22;10514;49.468;11.044;2024-03-02T08:35:06;9.70;90.00
20706;DHT22;10514;49.468;11.044;2024-03-02T08:37:32;9.80;87.80
20706;DHT22;10514;49.468;11.044;2024-03-02T08:39:57;9.90;89.00
20706;DHT22;10514;49.468;11.044;2024-03-02T08:42:23;10.20;85.70
20706;DHT22;10514;49.468;11.044;2024-03-02T08:44:49;10.30;84.00
20706;DHT22;10514;49.468;11.044;2024-03-02T08:47:15;10.60;84.50
20706;DHT22;10514;49.468;11.044;2024-03-02T08:49:40;10.90;81.00
20706;DHT22;10514;49.468;11.044;2024-03-02T08:52:06;11.10;80.90
20706;DHT22;10514;49.468;11.044;2024-03-02T08:54:31;11.50;78.90
20706;DHT22;10514;49.468;11.044;2024-03-02T08:56:58;11.70;78.30
20706;DHT22;10514;49.468;11.044;2024-03-02T08:59:24;11.80;76.80
20706;DHT22;10514;49.468;11.044;2024-03-02T09:01:50;11.90;76.20
20706;DHT22;10514;49.468;11.044;2024-03-02T09:04:16;12.10;75.00
20706;DHT22;10514;49.468;11.044;2024-03-02T09:06:42;12.10;74.80
20706;DHT22;10514;49.468;11.044;2024-03-02T09:09:07;12.20;74.00
20706;DHT22;10514;49.468;11.044;2024-03-02T09:11:33;12.30;73.90
20706;DHT22;10514;49.468;11.044;2024-03-02T09:13:59;12.20;73.50
20706;DHT22;10514;49.468;11.044;2024-03-02T09:16:25;12.00;74.10
20706;DHT22;10514;49.468;11.044;2024-03-02T09:18:56;12.00;74.30
20706;DHT22;10514;49.468;11.044;2024-03-02T09:21:21;12.00;74.20
20706;DHT22;10514;49.468;11.044;2024-03-02T09:23:48;12.00;73.60
20706;DHT22;10514;49.468;11.044;2024-03-02T09:26:14;12.00;74.00
20706;DHT22;10514;49.468;11.044;2024-03-02T09:28:43;12.00;73.40
20706;DHT22;10514;49.468;11.044;2024-03-02T09:31:09;11.80;74.00
20706;DHT22;10514;49.468;11.044;2024-03-02T09:33:34;11.80;74.10
20706;DHT22;10514;49.468;11.044;2024-03-02T09:36:00;11.50;74.90
20706;DHT22;10514;49.468;11.044;2024-03-02T09:38:25;11.40;75.30
20706;DHT22;10514;49.468;11.044;2024-03-02T09:40:51;11.50;75.10
20706;DHT22;10514;49.468;11.044;2024-03-02T09:43:17;11.50;75.40
20706;DHT22;10514;49.468;11.044;2024-03-02T09:45:43;11.60;74.70
20706;DHT22;10514;49.468;11.044;2024-03-02T09:48:10;11.50;75.00
20706;DHT22;10514;49.468;11.044;2024-03-02T09:50:35;11.60;75.50
20706;DHT22;10514;49.468;11.044;2024-03-02T09:53:01;11.70;75.10
20706;DHT22;10514;49.468;11.044;2024-03-02T09:55:27;11.80;74.40
20706;DHT22;10514;49.468;11.044;2024-03-02T09:57:53;12.00;74.10
20706;DHT22;10514;49.468;11.044;2024-03-02T10:00:18;12.30;73.40
20706;DHT22;10514;49.468;11.044;2024-03-02T10:02:44;12.30;72.90
20706;DHT22;10514;49.468;11.044;2024-03-02T10:05:10;12.40;73.00
20706;DHT22;10514;49.468;11.044;2024-03-02T10:07:35;12.40;72.40
20706;DHT22;10514;49.468;11.044;2024-03-02T10:10:21;12.40;72.00
20706;DHT22;10514;49.468;11.044;2024-03-02T10:12:47;12.50;72.10
20706;DHT22;10514;49.468;11.044;2024-03-02T10:15:12;12.50;72.20
20706;DHT22;10514;49.468;11.044;2024-03-02T10:17:38;12.60;71.50
20706;DHT22;10514;49.468;11.044;2024-03-02T10:20:23;12.60;72.30
20706;DHT22;10514;49.468;11.044;2024-03-02T10:22:49;12.60;71.90
20706;DHT22;10514;49.468;11.044;2024-03-02T10:25:31;12.70;72.00
20706;DHT22;10514;49.468;11.044;2024-03-02T10:27:58;12.90;71.50
20706;DHT22;10514;49.468;11.044;2024-03-02T10:30:24;13.00;70.90
20706;DHT22;10514;49.468;11.044;2024-03-02T10:32:49;13.10;69.10
20706;DHT22;10514;49.468;11.044;2024-03-02T10:35:16;13.00;69.60
20706;DHT22;10514;49.468;11.044;2024-03-02T10:37:42;13.00;69.70
20706;DHT22;10514;49.468;11.044;2024-03-02T10:40:10;12.90;70.00
20706;DHT22;10514;49.468;11.044;2024-03-02T10:42:37;13.00;69.00
20706;DHT22;10514;49.468;11.044;2024-03-02T10:45:11;13.20;68.80
20706;DHT22;10514;49.468;11.044;2024-03-02T10:47:38;13.10;68.60
20706;DHT22;10514;49.468;11.044;2024-03-02T10:50:07;13.20;69.10
20706;DHT22;10514;49.468;11.044;2024-03-02T10:52:37;13.20;69.10
20706;DHT22;10514;49.468;11.044;2024-03-02T10:55:05;13.30;68.90
20706;DHT22;10514;49.468;11.044;2024-03-02T10:57:51;13.40;68.20
20706;DHT22;10514;49.468;11.044;2024-03-02T11:00:19;13.40;67.90
20706;DHT22;10514;49.468;11.044;2024-03-02T11:02:57;13.40;67.40
20706;DHT22;10514;49.468;11.044;2024-03-02T11:05:28;13.60;68.50
20706;DHT22;10514;49.468;11.044;2024-03-02T11:08:00;13.60;68.10
20706;DHT22;10514;49.468;11.044;2024-03-02T11:10:31;13.30;67.90
20706;DHT22;10514;49.468;11.044;2024-03-02T11:13:05;13.20;68.60
20706;DHT22;10514;49.468;11.044;2024-03-02T11:15:34;13.00;68.90
20706;DHT22;10514;49.468;11.044;2024-03-02T11:18:04;12.80;69.70
20706;DHT22;10514;49.468;11.044;2024-03-02T11:20:32;12.70;69.20
20706;DHT22;10514;49.468;11.044;2024-03-02T11:23:07;12.50;69.90
20706;DHT22;10514;49.468;11.044;2024-03-02T11:25:34;12.60;70.30
20706;DHT22;10514;49.468;11.044;2024-03-02T11:28:01;12.50;70.60
20706;DHT22;10514;49.468;11.044;2024-03-02T11:33:06;12.50;70.50
20706;DHT22;10514;49.468;11.044;2024-03-02T11:35:36;12.50;70.20
20706;DHT22;10514;49.468;11.044;2024-03-02T11:38:02;12.50;70.00
20706;DHT22;10514;49.468;11.044;2024-03-02T11:40:29;12.60;69.50
20706;DHT22;10514;49.468;11.044;2024-03-02T11:42:55;12.70;70.00
20706;DHT22;10514;49.468;11.044;2024-03-02T11:45:25;12.80;69.70
20706;DHT22;10514;49.468;11.044;2024-03-02T11:47:52;12.70;70.50
20706;DHT22;10514;49.468;11.044;2024-03-02T11:50:34;12.80;69.70
20706;DHT22;10514;49.468;11.044;2024-03-02T11:53:00;12.90;68.90
20706;DHT22;10514;49.468;11.044;2024-03-02T11:55:26;12.70;69.30
20706;DHT22;10514;49.468;11.044;2024-03-02T11:57:55;12.60;69.10
20706;DHT22;10514;49.468;11.044;2024-03-02T12:00:20;12.70;70.30
20706;DHT22;10514;49.468;11.044;2024-03-02T12:02:47;12.70;69.30
20706;DHT22;10514;49.468;11.044;2024-03-02T12:05:24;12.70;68.90
20706;DHT22;10514;49.468;11.044;2024-03-02T12:07:59;12.80;69.20
20706;DHT22;10514;49.468;11.044;2024-03-02T12:10:25;12.90;68.50
20706;DHT22;10514;49.468;11.044;2024-03-02T12:13:02;12.70;68.50
20706;DHT22;10514;49.468;11.044;2024-03-02T12:15:30;12.60;69.60
20706;DHT22;10514;49.468;11.044;2024-03-02T12:17:57;12.60;69.40
20706;DHT22;10514;49.468;11.044;2024-03-02T12:20:24;12.70;69.10
20706;DHT22;10514;49.468;11.044;2024-03-02T12:22:52;12.70;69.10
20706;DHT22;10514;49.468;11.044;2024-03-02T12:25:21;12.50;68.70
20706;DHT22;10514;49.468;11.044;2024-03-02T12:27:50;12.50;68.90
20706;DHT22;10514;49.468;11.044;2024-03-02T12:30:20;12.60;69.40
20706;DHT22;10514;49.468;11.044;2024-03-02T12:32:47;12.60;68.60
20706;DHT22;10514;49.468;11.044;2024-03-02T12:35:13;12.60;69.00
20706;DHT22;10514;49.468;11.044;2024-03-02T12:37:46;12.60;69.00
20706;DHT22;10514;49.468;11.044;2024-03-02T12:40:12;12.50;68.30
20706;DHT22;10514;49.468;11.044;2024-03-02T12:42:39;12.50;69.00
20706;DHT22;10514;49.468;11.044;2024-03-02T12:45:06;12.50;68.80
20706;DHT22;10514;49.468;11.044;2024-03-02T12:47:33;12.50;67.70
20706;DHT22;10514;49.468;11.044;2024-03-02T12:49:59;12.40;68.40
20706;DHT22;10514;49.468;11.044;2024-03-02T12:52:24;12.20;69.60
20706;DHT22;10514;49.468;11.044;2024-03-02T12:54:50;12.30;70.30
20706;DHT22;10514;49.468;11.044;2024-03-02T12:57:19;12.20;70.30
20706;DHT22;10514;49.468;11.044;2024-03-02T12:59:48;12.30;70.90
20706;DHT22;10514;49.468;11.044;2024-03-02T13:02:17;12.30;70.10
20706;DHT22;10514;49.468;11.044;2024-03-02T13:04:43;12.30;69.50
20706;DHT22;10514;49.468;11.044;2024-03-02T13:07:10;12.40;70.30
20706;DHT22;10514;49.468;11.044;2024-03-02T13:09:36;12.50;69.70
20706;DHT22;10514;49.468;11.044;2024-03-02T13:12:03;12.60;69.40
20706;DHT22;10514;49.468;11.044;2024-03-02T13:14:32;12.70;68.60
20706;DHT22;10514;49.468;11.044;2024-03-02T13:16:58;12.70;68.50
20706;DHT22;10514;49.468;11.044;2024-03-02T13:19:25;12.60;68.60
20706;DHT22;10514;49.468;11.044;2024-03-02T13:21:50;12.50;69.00
20706;DHT22;10514;49.468;11.044;2024-03-02T13:24:16;12.60;68.80
20706;DHT22;10514;49.468;11.044;2024-03-02T13:26:42;12.60;68.60
20706;DHT22;10514;49.468;11.044;2024-03-02T13:29:07;12.70;68.30
20706;DHT22;10514;49.468;11.044;2024-03-02T13:31:33;12.70;68.40
20706;DHT22;10514;49.468;11.044;2024-03-02T13:33:58;13.00;67.90
20706;DHT22;10514;49.468;11.044;2024-03-02T13:36:24;13.10;66.80
20706;DHT22;10514;49.468;11.044;2024-03-02T13:38:49;13.20;66.90
20706;DHT22;10514;49.468;11.044;2024-03-02T13:41:15;13.40;66.50
20706;DHT22;10514;49.468;11.044;2024-03-02T13:43:41;13.50;66.50
20706;DHT22;10514;49.468;11.044;2024-03-02T13:46:06;13.60;65.50
20706;DHT22;10514;49.468;11.044;2024-03-02T13:48:32;13.80;64.50
20706;DHT22;10514;49.468;11.044;2024-03-02T13:50:57;13.80;64.60
20706;DHT22;10514;49.468;11.044;2024-03-02T13:53:23;13.80;64.00
20706;DHT22;10514;49.468;11.044;2024-03-02T13:55:49;13.80;64.40
20706;DHT22;10514;49.468;11.044;2024-03-02T13:58:14;13.90;64.30
20706;DHT22;10514;49.468;11.044;2024-03-02T14:00:44;13.90;63.60
20706;DHT22;10514;49.468;11.044;2024-03-02T14:03:10;13.80;63.30
20706;DHT22;10514;49.468;11.044;2024-03-02T14:05:36;13.90;63.30
20706;DHT22;10514;49.468;11.044;2024-03-02T14:08:02;13.90;63.40
20706;DHT22;10514;49.468;11.044;2024-03-02T14:10:27;13.90;62.60
20706;DHT22;10514;49.468;11.044;2024-03-02T14:12:54;13.90;63.10
20706;DHT22;10514;49.468;11.044;2024-03-02T14:15:21;13.90;63.00
20706;DHT22;10514;49.468;11.044;2024-03-02T14:17:46;13.90;62.60
20706;DHT22;10514;49.468;11.044;2024-03-02T14:20:12;13.90;62.90
20706;DHT22;10514;49.468;11.044;2024-03-02T14:22:39;13.80;62.70
20706;DHT22;10514;49.468;11.044;2024-03-02T14:25:05;13.90;63.00
20706;DHT22;10514;49.468;11.044;2024-03-02T14:27:31;13.80;63.60
20706;DHT22;10514;49.468;11.044;2024-03-02T14:29:57;13.80;63.50
20706;DHT22;10514;49.468;11.044;2024-03-02T14:32:22;13.90;62.70
20706;DHT22;10514;49.468;11.044;2024-03-02T14:34:48;13.70;63.00
20706;DHT22;10514;49.468;11.044;2024-03-02T14:37:14;13.70;63.90
20706;DHT22;10514;49.468;11.044;2024-03-02T14:39:40;13.60;63.60
20706;DHT22;10514;49.468;11.044;2024-03-02T14:42:06;13.60;63.20
20706;DHT22;10514;49.468;11.044;2024-03-02T14:44:32;13.60;63.70
20706;DHT22;10514;49.468;11.044;2024-03-02T14:46:58;13.70;63.80
20706;DHT22;10514;49.468;11.044;2024-03-02T14:49:25;13.60;64.00
20706;DHT22;10514;49.468;11.044;2024-03-02T14:51:50;13.60;63.80
20706;DHT22;10514;49.468;11.044;2024-03-02T14:54:16;13.60;63.90
20706;DHT22;10514;49.468;11.044;2024-03-02T14:56:41;13.60;64.30
20706;DHT22;10514;49.468;11.044;2024-03-02T14:59:07;13.40;64.20
20706;DHT22;10514;49.468;11.044;2024-03-02T15:01:32;13.40;65.10
20706;DHT22;10514;49.468;11.044;2024-03-02T15:03:58;13.40;65.40
20706;DHT22;10514;49.468;11.044;2024-03-02T15:06:24;13.30;65.50
20706;DHT22;10514;49.468;11.044;2024-03-02T15:08:49;13.30;65.70
20706;DHT22;10514;49.468;11.044;2024-03-02T15:11:15;13.20;65.80
20706;DHT22;10514;49.468;11.044;2024-03-02T15:13:40;13.10;66.20
20706;DHT22;10514;49.468;11.044;2024-03-02T15:16:07;13.10;65.00
20706;DHT22;10514;49.468;11.044;2024-03-02T15:18:32;13.00;66.20
20706;DHT22;10514;49.468;11.044;2024-03-02T15:20:58;12.90;67.20
20706;DHT22;10514;49.468;11.044;2024-03-02T15:23:23;12.80;67.50
20706;DHT22;10514;49.468;11.044;2024-03-02T15:25:49;12.80;67.80